Main page
METAR-TAF:

METAR-TAF

Airports :

Ancona, Italy

Falconara Airport

latitude: 43-37N, longitude: 013-22E, elevation: 12 m

Current weather observation

The report was made 41 minutes ago, at 06:50 UTC
Wind 3 kt from the South, varying between South/Southeast and Southwest
Temperature 11°C
Humidity 66%
Pressure 1018 hPa
Visibility 10 km or more
Few clouds at a height of 2500 ft

METAR: LIPY 240650Z 17003KT 150V220 9999 FEW025 11/05 Q1018

Time: 09:31 (07:31 UTC)

Forecast

The report was made 2 hours and 31 minutes ago, at 05:00 UTC
Forecast valid from 24 at 06 UTC to 25 at 06 UTC
Wind 6 kt from variable directions
Visibility 10 km or more
no clouds below 1500 m and no cumulonimbus
Becoming
from 24 at 07 UTC to 24 at 09 UTC
Wind 12 kt from the North/Northwest

TAF: LIPY 240500Z 2406/2506 VRB06KT CAVOK BECMG 2407/2409 34012KT

Weather observations and forecasts of more than 4000 airports (METAR and TAF reports).

The available stations are represented by yellow and red dots on the map.

Hover mouse over dot to see the name of the station.

Then click to see weather observations and forecasts.

To change the map : click on the green buttons with a black cross to zoom in, on the green button with a dash to zoom out, or on the green arrows for adjacent maps.


METAR-TAF: